Time;durP1;ratioP1;P1;durP2;ratioP2;P2;SDS_P1;SDS_P2;PMS_P1;PMS_P2;Temp;Humidity;BMP_temperature;BMP_pressure;BME280_temperature;BME280_humidity;BME280_pressure;Samples;Min_cycle;Max_cycle;Signal;HPM_P1;HPM_P2
2023/01/15 00:01:24;;;;;;;23.43;14.37;;;;;;;6.39;87.27;95308.56;5054166;28;20499;-87
2023/01/15 00:03:51;;;;;;;23.73;14.37;;;;;;;6.45;86.51;95309.00;5053701;28;20445;-87
2023/01/15 00:06:18;;;;;;;24.10;13.27;;;;;;;6.43;86.06;95303.06;5053779;28;20449;-87
2023/01/15 00:08:45;;;;;;;23.63;14.90;;;;;;;6.43;85.96;95299.63;5053449;28;20485;-84
2023/01/15 00:11:12;;;;;;;22.27;13.23;;;;;;;6.48;85.13;95307.97;5053718;28;20999;-84
2023/01/15 00:13:39;;;;;;;25.43;14.10;;;;;;;6.52;85.77;95299.03;5053520;28;20990;-85
2023/01/15 00:16:07;;;;;;;23.90;14.47;;;;;;;6.50;85.59;95299.13;5053371;28;20495;-85
2023/01/15 00:18:35;;;;;;;24.90;15.83;;;;;;;6.48;85.93;95302.78;5053610;28;20437;-85
2023/01/15 00:21:03;;;;;;;22.40;15.10;;;;;;;6.48;86.15;95302.78;5053819;28;20449;-85
2023/01/15 00:28:58;;;;;;;25.63;16.83;;;;;;;6.55;85.60;95301.44;5031372;28;20422;-85
2023/01/15 00:31:25;;;;;;;29.63;16.27;;;;;;;6.56;85.83;95308.34;5031179;28;21009;-85
2023/01/15 00:33:53;;;;;;;21.60;13.17;;;;;;;6.57;86.39;95298.75;5031261;28;20520;-85
2023/01/15 00:36:20;;;;;;;26.20;15.87;;;;;;;6.64;86.48;95308.69;5031255;28;20452;-85
2023/01/15 00:38:47;;;;;;;28.20;15.87;;;;;;;6.71;85.62;95302.19;5030945;28;20953;-85
2023/01/15 00:41:14;;;;;;;27.27;15.70;;;;;;;6.78;85.13;95306.06;5031546;28;20450;-86
2023/01/15 00:43:41;;;;;;;27.20;15.20;;;;;;;6.82;85.10;95299.72;5031264;28;20933;-87
2023/01/15 00:46:08;;;;;;;30.97;15.50;;;;;;;6.88;85.07;95301.09;5031025;28;20941;-84
2023/01/15 00:48:35;;;;;;;30.07;17.67;;;;;;;6.92;84.51;95294.75;5031132;28;20458;-85
2023/01/15 00:51:04;;;;;;;24.97;16.40;;;;;;;6.93;84.17;95292.97;5030823;28;20490;-85
2023/01/15 00:53:31;;;;;;;30.20;17.10;;;;;;;6.92;84.19;95286.91;5030955;28;20466;-85
2023/01/15 00:55:58;;;;;;;28.33;17.17;;;;;;;6.95;84.29;95293.72;5030577;28;20450;-85
2023/01/15 00:58:25;;;;;;;28.00;15.97;;;;;;;6.90;83.37;95294.00;5030797;28;20450;-85
2023/01/15 01:00:55;;;;;;;26.17;16.10;;;;;;;6.89;84.04;95294.09;5030988;28;20927;-85
2023/01/15 01:03:22;;;;;;;31.53;18.80;;;;;;;6.91;84.08;95285.25;5040841;28;20449;-85
2023/01/15 01:05:49;;;;;;;29.30;16.37;;;;;;;6.93;84.29;95292.97;5052743;28;20921;-85
2023/01/15 01:08:17;;;;;;;29.93;17.03;;;;;;;6.93;83.68;95299.03;5052863;28;20437;-85
2023/01/15 01:10:44;;;;;;;25.63;16.20;;;;;;;6.88;84.09;95300.25;5053212;28;20494;-85
2023/01/15 01:13:12;;;;;;;26.67;15.70;;;;;;;6.86;84.61;95294.31;5052881;28;20461;-86
2023/01/15 01:15:39;;;;;;;26.03;16.70;;;;;;;6.82;84.88;95297.09;5052961;28;20503;-86
2023/01/15 01:18:06;;;;;;;32.60;18.13;;;;;;;6.79;85.34;95299.91;5052648;28;20949;-86
2023/01/15 01:20:34;;;;;;;25.23;16.80;;;;;;;6.82;84.94;95297.09;5052606;28;21036;-86
2023/01/15 01:23:01;;;;;;;22.73;15.47;;;;;;;6.75;84.81;95289.78;5053254;28;20845;-86
2023/01/15 01:25:29;;;;;;;22.70;15.27;;;;;;;6.76;84.58;95301.88;5052864;28;20461;-85
2023/01/15 01:27:56;;;;;;;24.77;14.90;;;;;;;6.73;85.12;95286.44;5052758;28;20670;-86
2023/01/15 01:30:22;;;;;;;26.10;16.43;;;;;;;6.76;84.92;95289.69;5052593;28;20485;-86
2023/01/15 01:32:49;;;;;;;30.27;16.70;;;;;;;6.78;84.58;95287.81;5052744;28;20963;-86
2023/01/15 01:35:16;;;;;;;30.80;16.17;;;;;;;6.80;84.20;95278.13;5052812;28;20446;-86
2023/01/15 01:37:43;;;;;;;31.33;15.77;;;;;;;6.77;84.34;95272.25;5056554;28;20465;-86
2023/01/15 01:40:11;;;;;;;25.00;15.67;;;;;;;6.75;84.44;95280.19;5056477;28;20445;-86
2023/01/15 01:42:39;;;;;;;24.37;14.10;;;;;;;6.75;84.90;95282.78;5056263;28;21042;-86
2023/01/15 01:45:17;;;;;;;40.27;22.33;;;;;;;6.72;85.01;95274.31;5056670;28;20503;-86
2023/01/15 01:47:44;;;;;;;29.53;16.87;;;;;;;6.76;84.67;95283.63;5022702;28;20500;-85
2023/01/15 01:50:13;;;;;;;23.13;15.60;;;;;;;6.77;85.27;95280.09;5056028;28;20486;-86
2023/01/15 01:52:45;;;;;;;26.10;15.60;;;;;;;6.78;84.67;95279.16;5056347;28;20507;-86
2023/01/15 01:55:16;;;;;;;22.93;16.30;;;;;;;6.78;85.04;95285.19;5037723;28;20434;-86
2023/01/15 01:57:46;;;;;;;27.77;17.03;;;;;;;6.80;85.07;95283.31;5056518;28;20453;-86
2023/01/15 02:00:14;;;;;;;28.80;18.40;;;;;;;6.80;84.98;95280.72;5055946;28;20442;-85
2023/01/15 02:02:44;;;;;;;32.83;16.43;;;;;;;6.79;84.82;95278.22;5055950;28;20446;-86
2023/01/15 02:05:14;;;;;;;29.10;16.67;;;;;;;6.72;84.95;95277.78;5037574;28;20449;-86
2023/01/15 02:07:41;;;;;;;31.10;20.10;;;;;;;6.76;84.87;95288.84;5055910;28;20458;-85
2023/01/15 02:10:14;;;;;;;35.40;18.73;;;;;;;6.62;85.06;95281.03;5037193;28;20476;-85
2023/01/15 02:12:46;;;;;;;36.90;22.00;;;;;;;6.54;85.39;95284.13;5056433;28;20433;-86
2023/01/15 02:15:18;;;;;;;27.77;18.00;;;;;;;6.56;85.95;95277.06;5055800;28;20928;-85
2023/01/15 02:17:49;;;;;;;25.87;17.00;;;;;;;6.57;85.69;95281.31;5055918;28;20437;-86
2023/01/15 02:20:29;;;;;;;27.03;17.47;;;;;;;6.64;85.48;95276.56;5055580;28;21038;-86
2023/01/15 02:23:26;;;;;;;25.57;16.27;;;;;;;6.69;85.39;95275.38;5055972;28;20444;-85
2023/01/15 02:26:16;;;;;;;29.27;18.90;;;;;;;6.63;85.26;95273.13;5052622;28;20506;-85
2023/01/15 02:28:47;;;;;;;30.03;20.43;;;;;;;6.55;85.75;95271.94;4974747;28;20441;-86
2023/01/15 02:31:17;;;;;;;30.53;18.53;;;;;;;6.62;86.39;95278.44;4974560;28;20484;-86
2023/01/15 02:33:49;;;;;;;27.30;18.13;;;;;;;6.67;85.94;95282.44;4974588;28;20511;-86
2023/01/15 02:36:18;;;;;;;28.70;18.00;;;;;;;6.72;85.31;95279.53;4974986;28;20497;-86
2023/01/15 02:38:50;;;;;;;27.80;16.50;;;;;;;6.75;86.30;95287.16;4974880;28;20448;-86
2023/01/15 02:41:20;;;;;;;32.17;18.57;;;;;;;6.68;85.54;95278.91;4974424;28;20508;-86
2023/01/15 02:43:52;;;;;;;29.93;17.10;;;;;;;6.72;85.09;95280.38;4974580;28;20454;-86
2023/01/15 02:46:26;;;;;;;27.70;15.87;;;;;;;6.73;85.59;95276.84;4974107;28;20596;-86
2023/01/15 02:48:56;;;;;;;29.90;16.20;;;;;;;6.73;85.25;95270.78;4973969;28;20532;-85
2023/01/15 02:51:25;;;;;;;28.57;16.20;;;;;;;6.77;84.90;95261.81;4974142;28;20548;-86
2023/01/15 02:53:57;;;;;;;25.37;15.73;;;;;;;6.82;84.22;95264.97;4974209;28;20504;-85
2023/01/15 02:56:29;;;;;;;23.13;16.83;;;;;;;6.83;84.85;95261.44;4974347;28;20442;-86
2023/01/15 02:59:01;;;;;;;26.23;16.10;;;;;;;6.87;84.12;95267.28;4973980;28;20442;-86
2023/01/15 03:01:34;;;;;;;33.50;16.37;;;;;;;6.86;83.77;95263.00;4973964;28;20827;-85
2023/01/15 03:04:08;;;;;;;30.73;17.70;;;;;;;6.88;84.57;95259.34;4974240;28;20448;-85
2023/01/15 03:06:41;;;;;;;23.63;15.30;;;;;;;6.88;84.24;95256.75;5032169;28;20959;-86
2023/01/15 03:09:09;;;;;;;28.10;16.60;;;;;;;6.91;84.27;95260.94;5055115;28;20845;-85
2023/01/15 03:11:40;;;;;;;26.73;18.50;;;;;;;6.92;84.16;95260.81;5052873;28;20485;-85
2023/01/15 03:14:16;;;;;;;30.90;17.00;;;;;;;6.96;84.10;95258.88;5054852;28;20499;-86
2023/01/15 03:16:46;;;;;;;27.47;17.30;;;;;;;6.99;84.08;95272.56;5054765;28;20450;-85
2023/01/15 03:19:23;;;;;;;28.90;18.63;;;;;;;6.96;84.22;95267.53;5054927;28;20437;-86
2023/01/15 03:21:55;;;;;;;36.33;15.63;;;;;;;6.95;84.75;95273.69;5054978;28;20450;-85
2023/01/15 03:24:28;;;;;;;30.87;17.30;;;;;;;6.97;84.76;95273.59;5055007;28;20449;-85
2023/01/15 03:26:55;;;;;;;28.33;17.77;;;;;;;6.94;84.83;95274.63;5054138;28;21006;-85
2023/01/15 03:29:27;;;;;;;28.53;18.20;;;;;;;6.94;84.86;95271.16;5054662;28;20796;-85
2023/01/15 03:31:54;;;;;;;26.00;17.93;;;;;;;6.93;84.72;95265.09;5053971;28;20489;-85
2023/01/15 03:34:21;;;;;;;32.23;20.80;;;;;;;6.92;84.44;95271.25;5054144;28;20448;-86
2023/01/15 03:36:48;;;;;;;33.47;19.77;;;;;;;6.90;84.43;95272.28;5054165;28;20484;-85
2023/01/15 03:39:15;;;;;;;31.40;18.33;;;;;;;6.86;85.01;95276.88;5054973;28;20458;-81
2023/01/15 03:41:55;;;;;;;30.63;18.27;;;;;;;6.87;84.78;95280.31;5053591;28;20526;-85
2023/01/15 03:44:32;;;;;;;27.10;16.77;;;;;;;6.86;84.64;95276.03;5057972;28;20441;-86
2023/01/15 03:47:13;;;;;;;26.23;15.50;;;;;;;6.86;84.59;95276.03;5055477;28;20999;-85
2023/01/15 03:49:51;;;;;;;25.33;15.63;;;;;;;6.82;85.34;95275.41;5055107;28;20454;-84
2023/01/15 03:52:24;;;;;;;26.90;17.10;;;;;;;6.86;85.18;95276.03;5054895;28;20535;-84
2023/01/15 03:58:18;;;;;;;29.80;15.90;;;;;;;6.81;85.55;95273.72;5054599;28;20451;-85
2023/01/15 04:00:51;;;;;;;29.27;16.67;;;;;;;6.79;86.19;95266.00;5053577;28;20985;-84
2023/01/15 04:03:19;;;;;;;24.23;15.60;;;;;;;6.80;86.91;95274.66;5054872;28;20469;-85
2023/01/15 04:05:47;;;;;;;33.00;17.83;;;;;;;6.78;86.29;95272.16;5055023;28;20422;-85
2023/01/15 04:08:15;;;;;;;28.20;16.37;;;;;;;6.72;86.31;95272.56;5054971;28;20792;-85
2023/01/15 04:10:51;;;;;;;28.17;16.87;;;;;;;6.73;86.01;95269.00;5054368;28;20484;-86
2023/01/15 04:13:18;;;;;;;27.93;15.50;;;;;;;6.72;85.63;95262.13;5054912;28;20501;-85
2023/01/15 04:15:46;;;;;;;28.67;18.00;;;;;;;6.73;85.42;95269.00;5054716;28;20853;-84
2023/01/15 04:18:13;;;;;;;34.83;17.20;;;;;;;6.73;85.99;95258.59;5054213;28;20516;-84
2023/01/15 04:20:40;;;;;;;26.97;16.50;;;;;;;6.74;85.53;95260.25;5054541;28;20912;-86
2023/01/15 04:23:06;;;;;;;27.27;15.63;;;;;;;6.75;86.27;95269.75;5055037;28;20981;-86
2023/01/15 04:25:33;;;;;;;25.80;15.30;;;;;;;6.69;86.34;95264.94;5054539;28;20804;-84
2023/01/15 04:34:45;;;;;;;33.10;17.47;;;;;;;6.72;88.11;95264.72;5053585;28;20947;-86
2023/01/15 04:37:12;;;;;;;26.03;17.53;;;;;;;6.81;89.15;95268.50;5055065;28;20460;-88
2023/01/15 04:39:39;;;;;;;30.43;16.13;;;;;;;6.91;89.03;95273.97;5055394;28;20446;-90
2023/01/15 04:44:50;;;;;;;26.90;15.77;;;;;;;6.93;88.98;95278.16;5054981;28;20448;-90
2023/01/15 04:47:17;;;;;;;23.90;15.93;;;;;;;6.95;89.21;95280.69;5054612;28;20518;-88
2023/01/15 04:49:45;;;;;;;32.20;16.60;;;;;;;6.95;88.41;95283.28;5054738;28;20902;-88
2023/01/15 04:52:12;;;;;;;29.93;16.90;;;;;;;6.96;87.79;95290.19;5055305;28;20529;-88
2023/01/15 04:54:39;;;;;;;23.77;16.27;;;;;;;6.95;87.24;95285.91;5054922;28;20462;-88
2023/01/15 04:57:06;;;;;;;24.60;16.00;;;;;;;6.91;87.03;95289.63;5054618;28;20480;-88
2023/01/15 04:59:33;;;;;;;22.63;13.43;;;;;;;6.91;87.13;95279.19;5054435;28;20462;-89
2023/01/15 05:02:00;;;;;;;27.77;16.30;;;;;;;6.94;87.11;95278.97;5054572;28;20454;-89
2023/01/15 05:04:27;;;;;;;30.73;15.83;;;;;;;6.96;87.26;95279.75;5054594;28;20920;-89
2023/01/15 05:06:55;;;;;;;29.33;16.50;;;;;;;6.99;87.68;95282.16;5054789;28;20445;-90
2023/01/15 05:09:22;;;;;;;22.87;14.53;;;;;;;6.97;87.72;95278.81;5054797;28;20969;-90
2023/01/15 05:11:49;;;;;;;27.20;15.23;;;;;;;6.95;86.90;95276.31;5054051;28;20845;-90
2023/01/15 05:14:16;;;;;;;26.33;15.10;;;;;;;6.94;87.55;95285.06;5051774;28;20465;-90
2023/01/15 05:16:43;;;;;;;27.03;16.50;;;;;;;6.93;86.81;95285.13;5053547;28;20449;-90
2023/01/15 05:19:10;;;;;;;26.27;15.67;;;;;;;6.90;86.42;95274.91;5053510;28;20446;-90
2023/01/15 05:21:41;;;;;;;31.10;18.20;;;;;;;6.86;86.87;95276.88;5053336;28;20441;-90
2023/01/15 05:24:14;;;;;;;24.77;16.70;;;;;;;6.80;87.07;95272.06;5053285;28;20460;-90
2023/01/15 05:26:42;;;;;;;30.97;15.60;;;;;;;6.79;87.54;95284.25;5053051;28;20462;-90
2023/01/15 05:29:10;;;;;;;24.63;15.33;;;;;;;6.78;88.10;95282.59;5053318;28;20833;-90
2023/01/15 05:31:36;;;;;;;27.60;17.03;;;;;;;6.77;87.88;95270.47;5053069;28;20484;-90
2023/01/15 05:34:03;;;;;;;28.80;16.27;;;;;;;6.79;87.41;95279.03;5054176;28;20453;-91
2023/01/15 05:36:35;;;;;;;27.00;17.00;;;;;;;6.79;88.24;95279.03;5053563;28;20824;-91
2023/01/15 05:39:02;;;;;;;24.03;15.70;;;;;;;6.78;87.26;95277.38;5053418;28;20453;-90
2023/01/15 05:44:23;;;;;;;23.43;16.20;;;;;;;6.82;87.46;95265.81;5011559;28;20570;-90
2023/01/15 05:46:51;;;;;;;29.63;16.00;;;;;;;6.80;86.75;95266.84;5011588;28;20494;-91
2023/01/15 05:49:20;;;;;;;31.20;17.80;;;;;;;6.81;87.24;95268.50;5011521;28;20447;-91
2023/01/15 05:51:48;;;;;;;27.90;16.90;;;;;;;6.83;86.94;95261.44;5011298;28;20482;-90
2023/01/15 05:54:17;;;;;;;28.30;17.60;;;;;;;6.81;87.16;95274.56;5010514;28;20462;-91
2023/01/15 05:56:47;;;;;;;28.93;18.60;;;;;;;6.76;87.50;95281.84;5011667;28;20981;-91
2023/01/15 05:59:15;;;;;;;37.67;20.93;;;;;;;6.63;87.08;95285.31;5011691;28;20443;-90
2023/01/15 06:01:42;;;;;;;32.47;20.43;;;;;;;6.47;88.47;95288.06;5011691;28;20458;-91
2023/01/15 06:04:13;;;;;;;36.50;21.73;;;;;;;6.47;89.20;95285.47;5011793;28;20455;-91
2023/01/15 06:06:40;;;;;;;38.97;22.13;;;;;;;6.51;89.83;95290.38;5011983;28;20563;-90
2023/01/15 06:09:07;;;;;;;36.87;22.10;;;;;;;6.58;89.90;95292.59;5011572;28;20490;-90
2023/01/15 06:11:34;;;;;;;63.90;31.33;;;;;;;6.64;89.87;95295.66;5011497;28;20474;-90
2023/01/15 06:14:02;;;;;;;59.73;28.50;;;;;;;6.67;89.10;95282.44;5011480;28;20447;-90
2023/01/15 06:16:29;;;;;;;48.47;26.07;;;;;;;6.72;88.76;95276.94;5011465;28;20474;-90
2023/01/15 06:18:59;;;;;;;36.03;22.27;;;;;;;6.75;88.82;95280.19;5011337;28;20458;-90
2023/01/15 06:21:26;;;;;;;40.27;20.97;;;;;;;6.75;87.75;95290.63;5040376;28;20468;-91
2023/01/15 06:23:54;;;;;;;40.20;22.47;;;;;;;6.74;87.44;95288.94;5055456;28;20445;-91
2023/01/15 06:26:21;;;;;;;39.10;22.60;;;;;;;6.75;87.49;95295.81;5056802;28;20519;-90
2023/01/15 06:28:48;;;;;;;37.40;22.40;;;;;;;6.75;87.72;95290.63;5056368;28;20456;-90
2023/01/15 06:31:22;;;;;;;38.70;22.40;;;;;;;6.80;87.35;95279.88;5056235;28;20445;-91
2023/01/15 06:33:49;;;;;;;33.73;20.20;;;;;;;6.74;87.55;95277.66;5056181;28;20461;-91
2023/01/15 06:36:20;;;;;;;32.10;22.33;;;;;;;6.73;87.43;95282.06;5056361;28;20449;-90
2023/01/15 06:38:47;;;;;;;38.83;23.77;;;;;;;6.73;87.40;95281.22;5056298;28;20457;-91
2023/01/15 06:49:36;;;;;;;27.20;17.17;;;;;;;6.78;88.16;95294.78;5055912;28;20434;-91
2023/01/15 06:52:04;;;;;;;39.00;17.20;;;;;;;6.81;88.42;95290.22;5055718;28;20477;-90
2023/01/15 06:54:31;;;;;;;37.07;19.93;;;;;;;6.86;88.06;95287.31;5055978;28;20457;-91
2023/01/15 06:56:57;;;;;;;30.70;18.23;;;;;;;6.84;87.17;95282.19;5056264;28;20453;-90
2023/01/15 06:59:24;;;;;;;31.97;20.87;;;;;;;6.81;87.32;95278.94;5056168;28;20454;-89
2023/01/15 07:01:53;;;;;;;39.63;23.90;;;;;;;6.78;87.05;95285.19;5056218;28;20460;-90
2023/01/15 07:04:19;;;;;;;38.63;22.67;;;;;;;6.81;87.01;95284.16;5055655;28;20965;-90
2023/01/15 07:06:46;;;;;;;58.80;23.70;;;;;;;6.88;87.39;95285.44;5056048;28;20816;-91
2023/01/15 07:09:13;;;;;;;34.47;21.27;;;;;;;6.97;87.62;95289.25;5055466;28;20595;-91
2023/01/15 07:11:48;;;;;;;38.00;22.83;;;;;;;7.03;87.82;95283.63;5055289;28;20448;-91
2023/01/15 07:14:15;;;;;;;35.57;21.47;;;;;;;7.10;87.00;95274.47;5055242;28;20536;-90
2023/01/15 07:16:42;;;;;;;33.00;20.33;;;;;;;7.18;86.87;95280.00;5055128;28;20453;-91
2023/01/15 07:19:11;;;;;;;42.27;30.10;;;;;;;7.25;86.44;95283.91;5054755;28;20447;-92
2023/01/15 07:21:38;;;;;;;39.37;24.27;;;;;;;7.33;85.89;95286.84;5055327;28;20457;-91
2023/01/15 07:24:06;;;;;;;29.83;19.27;;;;;;;7.40;84.49;95282.06;5055470;28;20873;-91
2023/01/15 07:26:33;;;;;;;27.73;17.80;;;;;;;7.41;84.55;95284.56;5055623;28;20461;-91
2023/01/15 07:29:00;;;;;;;32.27;17.20;;;;;;;7.50;84.20;95287.50;5055015;28;20449;-90
2023/01/15 07:31:27;;;;;;;25.60;16.83;;;;;;;7.52;83.29;95291.72;5055091;28;20450;-90
2023/01/15 07:33:55;;;;;;;32.67;20.87;;;;;;;7.57;83.32;95288.78;5054937;28;20450;-91
2023/01/15 07:36:24;;;;;;;36.20;21.93;;;;;;;7.63;82.84;95294.44;5054915;28;20449;-90
2023/01/15 07:38:51;;;;;;;26.60;18.30;;;;;;;7.64;82.33;95297.88;5055082;28;20449;-92
2023/01/15 07:49:45;;;;;;;32.23;19.90;;;;;;;7.65;80.47;95299.53;5033320;28;20430;-91
2023/01/15 07:52:13;;;;;;;32.70;20.57;;;;;;;7.69;80.33;95301.84;5032629;28;20479;-91
2023/01/15 07:54:40;;;;;;;36.63;19.80;;;;;;;7.68;80.48;95301.94;5033611;28;20446;-90
2023/01/15 07:57:08;;;;;;;16.70;11.77;;;;;;;7.57;78.56;95300.06;5033427;28;20466;-91
2023/01/15 07:59:35;;;;;;;23.60;14.63;;;;;;;7.56;77.87;95302.78;5033588;28;20531;-91
2023/01/15 08:02:02;;;;;;;21.30;14.30;;;;;;;7.61;78.43;95304.16;5032918;28;20511;-91
2023/01/15 08:04:29;;;;;;;26.40;16.00;;;;;;;7.66;78.80;95298.59;5032817;28;20451;-91
2023/01/15 08:06:56;;;;;;;25.27;16.23;;;;;;;7.70;78.79;95303.53;5032546;28;20866;-89
2023/01/15 08:09:25;;;;;;;26.33;15.80;;;;;;;7.73;77.81;95302.47;5032635;28;20489;-90
2023/01/15 08:17:20;;;;;;;22.63;15.13;;;;;;;7.53;77.41;95308.22;5032809;28;20554;-89
2023/01/15 08:19:47;;;;;;;20.43;14.60;;;;;;;7.66;78.17;95304.66;5039996;28;20458;-90
2023/01/15 08:22:13;;;;;;;17.67;11.90;;;;;;;7.08;77.93;95310.25;5043110;28;20443;-90
2023/01/15 08:24:42;;;;;;;16.10;11.50;;;;;;;7.23;78.23;95311.03;5032583;28;20502;-90
2023/01/15 08:27:09;;;;;;;17.40;12.00;;;;;;;7.08;79.81;95310.25;5046872;28;20808;-90
2023/01/15 08:29:35;;;;;;;19.67;14.83;;;;;;;7.15;80.39;95303.69;5054598;28;20940;-90
2023/01/15 08:32:02;;;;;;;22.17;14.90;;;;;;;7.30;81.04;95313.16;5054111;28;20447;-90
2023/01/15 08:34:29;;;;;;;21.67;14.67;;;;;;;7.24;81.15;95313.56;5054152;28;20457;-90
2023/01/15 08:36:58;;;;;;;28.50;15.97;;;;;;;7.32;82.00;95313.91;5054010;28;20455;-90
2023/01/15 08:39:26;;;;;;;20.97;14.87;;;;;;;7.35;82.19;95305.03;5053800;28;20512;-90
2023/01/15 08:41:55;;;;;;;28.97;16.00;;;;;;;7.30;81.67;95307.94;5053960;28;20450;-89
2023/01/15 08:44:22;;;;;;;25.50;13.93;;;;;;;7.07;82.41;95298.97;5054463;28;20442;-91
2023/01/15 08:46:50;;;;;;;21.33;15.30;;;;;;;7.01;83.21;95309.00;5055448;28;20461;-90
2023/01/15 08:49:19;;;;;;;24.50;14.67;;;;;;;7.15;83.54;95303.69;5054017;28;20489;-89
2023/01/15 08:51:48;;;;;;;24.30;15.37;;;;;;;7.26;82.46;95305.63;5054120;28;20449;-90
2023/01/15 08:54:15;;;;;;;24.97;16.47;;;;;;;7.20;82.35;95300.78;5053684;28;20570;-91
2023/01/15 08:56:43;;;;;;;28.00;16.80;;;;;;;7.13;81.87;95305.56;5053824;28;20458;-90
2023/01/15 08:59:13;;;;;;;25.50;15.00;;;;;;;7.19;81.98;95310.38;5053715;28;20459;-89
2023/01/15 09:01:40;;;;;;;23.60;15.30;;;;;;;7.15;82.18;95308.91;5053719;28;20567;-90
2023/01/15 09:04:07;;;;;;;23.80;15.20;;;;;;;7.26;82.14;95303.03;5053988;28;20541;-90
2023/01/15 09:06:34;;;;;;;31.00;17.20;;;;;;;7.28;82.29;95309.81;5053806;28;20802;-90
2023/01/15 09:09:01;;;;;;;23.87;15.50;;;;;;;7.34;83.08;95298.97;5053520;28;20562;-91
2023/01/15 09:11:28;;;;;;;25.70;16.27;;;;;;;7.31;82.85;95309.63;5053544;28;20453;-90
2023/01/15 09:13:55;;;;;;;26.67;16.90;;;;;;;7.43;82.70;95298.34;5053522;28;20506;-89
2023/01/15 09:16:25;;;;;;;27.40;15.93;;;;;;;7.46;82.76;95303.38;5054102;28;20465;-90
2023/01/15 09:18:52;;;;;;;26.77;17.00;;;;;;;7.45;81.87;95299.09;5053906;28;20450;-89
2023/01/15 09:21:19;;;;;;;28.60;17.57;;;;;;;7.38;81.56;95295.22;5053301;28;20970;-89
2023/01/15 09:23:46;;;;;;;25.30;14.73;;;;;;;7.22;81.84;95297.13;5053699;28;20464;-90
2023/01/15 09:26:30;;;;;;;28.23;15.90;;;;;;;7.24;81.53;95291.84;5053926;28;20462;-90
2023/01/15 09:28:58;;;;;;;29.03;15.97;;;;;;;7.23;81.44;95288.41;5053572;28;20449;-91
2023/01/15 09:31:27;;;;;;;19.47;13.87;;;;;;;7.24;81.43;95287.47;5053331;28;20445;-90
2023/01/15 09:33:54;;;;;;;24.67;15.40;;;;;;;7.27;80.20;95282.03;5053184;28;20551;-90
2023/01/15 09:36:24;;;;;;;22.80;15.80;;;;;;;7.37;80.98;95283.09;5053948;28;20449;-89
2023/01/15 09:39:09;;;;;;;30.90;18.63;;;;;;;7.39;81.58;95272.56;5053394;28;20440;-90
2023/01/15 09:42:07;;;;;;;31.70;16.93;;;;;;;7.46;80.75;95271.19;5049000;28;20466;-90
2023/01/15 09:44:44;;;;;;;33.70;19.07;;;;;;;7.41;80.46;95274.13;5053362;28;20516;-90
2023/01/15 09:47:18;;;;;;;30.67;16.27;;;;;;;7.43;80.26;95272.25;5053171;28;20476;-89
2023/01/15 09:50:03;;;;;;;27.17;16.70;;;;;;;7.38;79.28;95263.88;5053469;28;20519;-90
2023/01/15 09:52:44;;;;;;;22.07;15.33;;;;;;;7.37;78.94;95256.16;5053117;28;20929;-89
2023/01/15 09:55:15;;;;;;;26.13;16.77;;;;;;;7.13;79.64;95253.38;5053254;28;20524;-89
2023/01/15 09:57:43;;;;;;;25.30;15.57;;;;;;;7.20;80.02;95246.81;5055199;28;20563;-90
2023/01/15 10:00:19;;;;;;;27.43;16.20;;;;;;;7.31;79.35;95241.75;5057371;28;20828;-90
2023/01/15 10:02:53;;;;;;;24.00;13.40;;;;;;;7.37;78.47;95235.28;5057124;28;20458;-90
2023/01/15 10:05:24;;;;;;;23.50;14.70;;;;;;;7.51;78.68;95231.72;5057158;28;20924;-89
2023/01/15 10:07:59;;;;;;;19.90;13.63;;;;;;;7.55;78.47;95228.00;5056670;28;20473;-90
2023/01/15 10:10:32;;;;;;;23.30;13.87;;;;;;;7.51;77.90;95223.88;5056746;28;20480;-90
2023/01/15 10:13:07;;;;;;;17.60;12.73;;;;;;;7.60;77.88;95216.28;5057296;28;20477;-90
2023/01/15 10:15:40;;;;;;;24.00;13.97;;;;;;;7.60;78.33;95220.69;5056681;28;20541;-90
2023/01/15 10:18:16;;;;;;;18.70;13.10;;;;;;;7.66;77.83;95217.66;5056569;28;20455;-89
2023/01/15 10:21:01;;;;;;;19.77;11.63;;;;;;;7.52;78.15;95204.69;5056258;28;20442;-90
2023/01/15 10:23:39;;;;;;;15.27;11.07;;;;;;;7.52;79.04;95194.22;5056386;28;20450;-89
2023/01/15 10:26:16;;;;;;;24.43;16.00;;;;;;;7.44;79.78;95194.75;5057501;28;20453;-89
2023/01/15 10:29:02;;;;;;;22.57;14.27;;;;;;;7.33;80.02;95192.03;5058842;28;20446;-90
2023/01/15 10:31:50;;;;;;;15.77;11.30;;;;;;;7.42;80.60;95194.03;5056145;28;20442;-89
2023/01/15 10:34:39;;;;;;;22.70;14.30;;;;;;;7.52;80.72;95187.25;5056557;28;20513;-90
2023/01/15 10:37:12;;;;;;;21.60;12.40;;;;;;;7.59;80.34;95178.06;5056267;28;20443;-90
2023/01/15 10:39:48;;;;;;;19.90;10.77;;;;;;;7.59;79.42;95172.00;5056218;28;20441;-91
2023/01/15 10:42:32;;;;;;;22.60;12.53;;;;;;;7.47;79.89;95179.72;5056632;28;20450;-91
2023/01/15 10:45:06;;;;;;;18.57;12.93;;;;;;;7.57;79.18;95164.28;5055878;28;20515;-90
2023/01/15 10:47:36;;;;;;;14.80;11.37;;;;;;;7.65;78.75;95164.56;5056203;28;20454;-90
2023/01/15 10:50:16;;;;;;;13.90;9.93;;;;;;;7.74;78.30;95160.47;5056269;28;20455;-90
2023/01/15 10:52:48;;;;;;;21.90;11.73;;;;;;;7.77;77.84;95163.72;5056227;28;20445;-90
2023/01/15 10:55:20;;;;;;;18.30;12.20;;;;;;;7.76;78.77;95153.38;5055918;28;20443;-89
2023/01/15 10:57:55;;;;;;;14.07;11.37;;;;;;;7.41;79.23;95147.97;5055724;28;20450;-90
2023/01/15 11:00:23;;;;;;;16.27;11.03;;;;;;;7.50;79.59;95141.28;5055884;28;20997;-90
2023/01/15 11:02:58;;;;;;;17.97;11.80;;;;;;;7.40;80.25;95141.09;5054329;28;20450;-90
2023/01/15 11:05:27;;;;;;;17.40;12.43;;;;;;;7.50;79.58;95133.44;5055747;28;20449;-90
2023/01/15 11:07:54;;;;;;;15.33;11.30;;;;;;;7.67;79.07;95122.69;5055458;28;20450;-90
2023/01/15 11:10:23;;;;;;;14.87;10.17;;;;;;;7.94;79.08;95125.97;5055654;28;20995;-90
2023/01/15 11:21:15;;;;;;;19.07;11.10;;;;;;;8.18;77.18;95101.66;5055853;28;20560;-91
2023/01/15 11:23:42;;;;;;;16.57;10.63;;;;;;;8.11;77.98;95108.28;5055773;28;20809;-91
2023/01/15 11:26:16;;;;;;;22.20;9.23;;;;;;;8.16;77.43;95103.53;5055638;28;20521;-89
2023/01/15 11:28:46;;;;;;;14.30;9.27;;;;;;;7.85;79.05;95100.50;5055513;28;20459;-91
2023/01/15 11:31:14;;;;;;;11.97;9.50;;;;;;;8.22;78.96;95095.25;5055833;28;20446;-90
2023/01/15 11:34:00;;;;;;;15.10;9.70;;;;;;;8.27;78.23;95090.53;5055580;28;20481;-90
2023/01/15 11:36:30;;;;;;;17.17;9.60;;;;;;;8.43;77.80;95085.88;5055671;28;20465;-91
2023/01/15 11:38:57;;;;;;;14.50;10.17;;;;;;;8.37;77.86;95087.16;5055689;28;20456;-90
2023/01/15 11:50:42;;;;;;;15.07;10.03;;;;;;;8.47;78.21;95076.88;5055665;28;20448;-90
2023/01/15 11:52:39;;;;;;;16.43;10.40;;;;;;;8.52;79.24;95064.28;5033350;28;20475;-90
2023/01/15 11:55:12;;;;;;;12.90;8.80;;;;;;;8.64;77.89;95058.13;5033118;28;20531;-91
2023/01/15 11:57:39;;;;;;;15.87;10.33;;;;;;;8.79;77.79;95057.94;5033536;28;20455;-91
2023/01/15 12:00:08;;;;;;;16.27;11.17;;;;;;;8.47;78.18;95058.56;5033391;28;20857;-91
2023/01/15 12:02:39;;;;;;;14.00;9.57;;;;;;;8.46;78.61;95050.84;5033219;28;20456;-90
2023/01/15 12:05:14;;;;;;;13.57;9.37;;;;;;;8.49;78.89;95055.84;5033538;28;20511;-90
2023/01/15 12:07:43;;;;;;;10.03;7.40;;;;;;;8.32;78.66;95052.63;5033235;28;20452;-91
2023/01/15 12:10:20;;;;;;;11.93;8.83;;;;;;;8.35;78.49;95049.81;5032877;28;20582;-90
2023/01/15 12:13:07;;;;;;;13.20;9.60;;;;;;;8.49;78.61;95043.59;5033176;28;21021;-89
2023/01/15 12:15:40;;;;;;;12.47;8.43;;;;;;;8.51;77.90;95052.16;4983656;28;20452;-92
2023/01/15 12:18:23;;;;;;;12.37;8.90;;;;;;;8.43;77.74;95036.22;5033217;28;20530;-91
2023/01/15 12:20:59;;;;;;;11.90;8.67;;;;;;;8.58;78.48;95042.06;5032493;28;20452;-91
2023/01/15 12:23:46;;;;;;;14.43;9.90;;;;;;;8.59;79.20;95034.09;5032970;28;21017;-90
2023/01/15 12:26:23;;;;;;;12.20;9.23;;;;;;;8.64;78.97;95034.59;5036327;28;20452;-91
2023/01/15 12:28:58;;;;;;;14.67;9.67;;;;;;;8.64;78.79;95031.97;5054873;28;20449;-91
2023/01/15 12:31:30;;;;;;;11.97;8.50;;;;;;;8.40;77.54;95039.06;5055024;28;20455;-90
2023/01/15 12:34:02;;;;;;;15.80;10.10;;;;;;;8.34;78.43;95026.41;5055210;28;20487;-90
2023/01/15 12:36:37;;;;;;;13.47;9.60;;;;;;;8.25;79.21;95024.44;5054753;28;20458;-91
2023/01/15 12:39:14;;;;;;;11.73;9.00;;;;;;;8.10;79.28;95021.19;5054771;28;20513;-91
2023/01/15 12:47:24;;;;;;;12.30;8.80;;;;;;;8.21;78.53;95017.78;5054528;28;20513;-91